Time;durP1;ratioP1;P1;durP2;ratioP2;P2;SDS_P1;SDS_P2;PMS_P1;PMS_P2;Temp;Humidity;BMP_temperature;BMP_pressure;BME280_temperature;BME280_humidity;BME280_pressure;Samples;Min_cycle;Max_cycle;Signal;HPM_P1;HPM_P2
2022/05/08 00:00:34;;;;;;;17.87;16.27;;;14.80;99.90;;;;;;6238387;28;20468;-62
2022/05/08 00:03:37;;;;;;;17.27;15.60;;;14.80;99.90;;;;;;6238230;28;20794;-62
2022/05/08 00:06:40;;;;;;;18.23;16.43;;;14.80;99.90;;;;;;6227084;28;20485;-62
2022/05/08 00:09:43;;;;;;;18.30;16.60;;;14.80;99.90;;;;;;6225298;28;20480;-62
2022/05/08 00:12:47;;;;;;;18.07;16.30;;;14.80;99.90;;;;;;6224561;28;20569;-62
2022/05/08 00:15:51;;;;;;;18.20;16.57;;;14.80;99.90;;;;;;6224117;28;20808;-62
2022/05/08 00:18:55;;;;;;;18.10;16.30;;;14.80;99.90;;;;;;6224197;28;20464;-62
2022/05/08 00:21:58;;;;;;;17.37;15.83;;;14.80;99.90;;;;;;6233232;28;20443;-62
2022/05/08 00:25:21;;;;;;;18.60;16.77;;;14.70;99.90;;;;;;6249327;28;20503;-62
2022/05/08 00:28:24;;;;;;;18.43;16.60;;;14.70;99.90;;;;;;6250436;28;20474;-62
2022/05/08 00:31:29;;;;;;;17.53;16.03;;;14.60;99.90;;;;;;6254624;28;20494;-62
2022/05/08 00:34:32;;;;;;;18.30;16.53;;;14.60;99.90;;;;;;6254626;28;20490;-64
2022/05/08 00:37:35;;;;;;;18.00;16.33;;;14.60;99.90;;;;;;6249494;28;20482;-62
2022/05/08 00:40:38;;;;;;;17.63;15.70;;;14.60;99.90;;;;;;6253973;28;20484;-62
2022/05/08 00:43:42;;;;;;;18.13;16.53;;;14.50;99.90;;;;;;6253941;28;20773;-62
2022/05/08 00:46:48;;;;;;;18.17;16.47;;;14.50;99.90;;;;;;6252868;28;20998;-63
2022/05/08 00:49:52;;;;;;;19.03;17.37;;;14.60;99.90;;;;;;6253848;28;20479;-63
2022/05/08 00:52:55;;;;;;;16.13;14.73;;;14.50;99.90;;;;;;6254251;28;20467;-64
2022/05/08 00:55:58;;;;;;;17.23;15.63;;;14.50;99.90;;;;;;6231489;28;20484;-61
2022/05/08 00:59:01;;;;;;;18.40;16.60;;;14.50;99.90;;;;;;6229111;28;20468;-62
2022/05/08 01:02:06;;;;;;;18.97;17.27;;;14.60;99.90;;;;;;6229088;28;20940;-63
2022/05/08 01:05:11;;;;;;;18.90;16.93;;;14.60;99.90;;;;;;6229258;28;20570;-63
2022/05/08 01:08:14;;;;;;;19.30;17.40;;;14.60;99.90;;;;;;6228541;28;20482;-63
2022/05/08 01:11:19;;;;;;;19.77;17.87;;;14.60;99.90;;;;;;6228366;28;20789;-64
2022/05/08 01:14:22;;;;;;;18.53;16.70;;;14.70;99.90;;;;;;6228895;28;20468;-63
2022/05/08 01:17:27;;;;;;;19.27;17.47;;;14.60;99.90;;;;;;6228419;28;20482;-63
2022/05/08 01:20:30;;;;;;;17.37;15.70;;;14.60;99.90;;;;;;6228734;28;20480;-63
2022/05/08 01:23:35;;;;;;;19.60;17.73;;;14.60;99.90;;;;;;6249993;28;20471;-64
2022/05/08 01:26:38;;;;;;;18.43;16.73;;;14.70;99.90;;;;;;6253098;28;20483;-63
2022/05/08 01:29:41;;;;;;;19.33;17.40;;;14.60;99.90;;;;;;6252878;28;20490;-63
2022/05/08 01:32:44;;;;;;;17.07;15.40;;;14.60;99.90;;;;;;6253209;28;20475;-63
2022/05/08 01:35:49;;;;;;;18.40;16.70;;;14.50;99.90;;;;;;6253056;28;20589;-63
2022/05/08 01:38:55;;;;;;;18.30;16.70;;;14.60;99.90;;;;;;6252807;28;20463;-63
2022/05/08 01:41:58;;;;;;;19.20;17.40;;;14.60;99.90;;;;;;6251882;28;20484;-63
2022/05/08 01:45:01;;;;;;;17.43;15.83;;;14.70;99.90;;;;;;6243586;28;20494;-63
2022/05/08 01:48:23;;;;;;;18.50;16.70;;;14.70;99.90;;;;;;6252875;28;20483;-63
2022/05/08 01:51:26;;;;;;;17.87;16.33;;;14.60;99.90;;;;;;6253368;28;20494;-63
2022/05/08 01:54:31;;;;;;;17.00;15.30;;;14.60;99.90;;;;;;6242848;28;20483;-63
2022/05/08 01:57:34;;;;;;;17.47;15.77;;;14.60;99.90;;;;;;6228676;28;20465;-63
2022/05/08 02:00:37;;;;;;;18.17;16.47;;;14.60;99.90;;;;;;6228375;28;20476;-63
2022/05/08 02:03:41;;;;;;;17.93;16.23;;;14.50;99.90;;;;;;6228013;28;20483;-63
2022/05/08 02:06:44;;;;;;;18.10;16.50;;;14.60;99.90;;;;;;6228030;28;20491;-63
2022/05/08 02:09:49;;;;;;;19.50;17.60;;;14.60;99.90;;;;;;6228030;28;20472;-63
2022/05/08 02:12:52;;;;;;;18.70;16.80;;;14.60;99.90;;;;;;6227396;28;21031;-63
2022/05/08 02:15:55;;;;;;;18.20;16.40;;;14.60;99.90;;;;;;6227059;28;20464;-63
2022/05/08 02:18:58;;;;;;;18.87;17.07;;;14.60;99.90;;;;;;6227342;28;20468;-64
2022/05/08 02:22:01;;;;;;;18.03;16.33;;;14.50;99.90;;;;;;6227169;28;20459;-64
2022/05/08 02:25:07;;;;;;;20.40;18.43;;;14.50;99.90;;;;;;6227321;28;20483;-63
2022/05/08 02:28:10;;;;;;;16.27;14.67;;;14.50;99.90;;;;;;6227398;28;20484;-63
2022/05/08 02:31:14;;;;;;;17.50;15.87;;;14.50;99.90;;;;;;6226708;28;20463;-63
2022/05/08 02:34:17;;;;;;;18.67;16.77;;;14.50;99.90;;;;;;6227335;28;20459;-63
2022/05/08 02:37:20;;;;;;;18.87;17.10;;;14.50;99.90;;;;;;6226539;28;20474;-63
2022/05/08 02:40:25;;;;;;;17.80;16.10;;;14.50;99.90;;;;;;6226601;28;20475;-63
2022/05/08 02:43:28;;;;;;;19.43;17.63;;;14.50;99.90;;;;;;6225030;28;20471;-64
2022/05/08 02:46:31;;;;;;;18.00;16.43;;;14.60;99.90;;;;;;6220373;28;20966;-63
2022/05/08 02:49:34;;;;;;;16.90;15.20;;;14.60;99.90;;;;;;6249891;28;20472;-63
2022/05/08 02:52:38;;;;;;;16.00;14.40;;;14.50;99.90;;;;;;6258404;28;20819;-64
2022/05/08 02:59:03;;;;;;;17.07;15.60;;;14.50;99.90;;;;;;6226329;28;20476;-63
2022/05/08 03:02:06;;;;;;;19.17;17.30;;;14.50;99.90;;;;;;6225441;28;20476;-62
2022/05/08 03:05:09;;;;;;;18.20;16.63;;;14.50;99.90;;;;;;6226305;28;20464;-63
2022/05/08 03:08:15;;;;;;;17.07;15.57;;;14.50;99.90;;;;;;6253450;28;20476;-62
2022/05/08 03:11:29;;;;;;;18.60;16.90;;;14.50;99.90;;;;;;6258314;28;20470;-63
2022/05/08 03:14:32;;;;;;;19.20;17.40;;;14.50;99.90;;;;;;6254678;28;20494;-66
2022/05/08 03:17:36;;;;;;;17.40;15.90;;;14.50;99.90;;;;;;6250501;28;20987;-66
2022/05/08 03:20:40;;;;;;;18.07;16.17;;;14.50;99.90;;;;;;6255377;28;20470;-65
2022/05/08 03:23:44;;;;;;;17.37;15.70;;;14.40;99.90;;;;;;6271144;28;20801;-64
2022/05/08 03:26:49;;;;;;;17.23;15.43;;;14.40;99.90;;;;;;6253985;28;20478;-63
2022/05/08 03:29:52;;;;;;;18.53;16.60;;;14.40;99.90;;;;;;6250415;28;20467;-65
2022/05/08 03:32:55;;;;;;;18.70;16.90;;;14.40;99.90;;;;;;6250188;28;20821;-64
2022/05/08 03:35:58;;;;;;;17.47;15.90;;;14.40;99.90;;;;;;6250341;28;20982;-63
2022/05/08 03:39:02;;;;;;;17.57;15.67;;;14.30;99.90;;;;;;6250153;28;20463;-64
2022/05/08 03:42:06;;;;;;;16.80;15.20;;;14.30;99.90;;;;;;6249906;28;20464;-63
2022/05/08 03:45:11;;;;;;;19.73;17.87;;;14.30;99.90;;;;;;6250106;28;20970;-65
2022/05/08 03:48:14;;;;;;;19.37;17.53;;;14.30;99.90;;;;;;6249897;28;20482;-63
2022/05/08 03:51:17;;;;;;;20.40;18.50;;;14.40;99.90;;;;;;6250201;28;20474;-63
2022/05/08 03:54:20;;;;;;;17.87;16.07;;;14.30;99.90;;;;;;6240405;28;20479;-63
2022/05/08 03:57:24;;;;;;;19.43;17.63;;;14.30;99.90;;;;;;6249402;28;20486;-64
2022/05/08 04:00:28;;;;;;;17.63;15.83;;;14.30;99.90;;;;;;6248446;28;21209;-64
2022/05/08 04:03:31;;;;;;;17.90;16.10;;;14.30;99.90;;;;;;6249662;28;20467;-65
2022/05/08 04:06:34;;;;;;;17.93;16.33;;;14.30;99.90;;;;;;6253237;28;20479;-65
2022/05/08 04:09:37;;;;;;;18.43;16.63;;;14.30;99.90;;;;;;6253511;28;20978;-65
2022/05/08 04:12:43;;;;;;;18.10;16.50;;;14.40;99.90;;;;;;6253413;28;20467;-65
2022/05/08 04:19:08;;;;;;;18.20;16.50;;;14.40;99.90;;;;;;6254447;28;20446;-64
2022/05/08 04:25:31;;;;;;;18.53;16.80;;;14.50;99.90;;;;;;6253137;28;20477;-64
2022/05/08 04:28:36;;;;;;;17.43;15.93;;;14.50;99.90;;;;;;6252980;28;20467;-64
2022/05/08 04:31:39;;;;;;;18.13;16.43;;;14.50;99.90;;;;;;6253069;28;20472;-64
2022/05/08 04:34:42;;;;;;;20.40;18.10;;;14.50;99.90;;;;;;6254188;28;20479;-66
2022/05/08 04:37:46;;;;;;;19.33;17.37;;;14.50;99.90;;;;;;6255909;28;20818;-65
2022/05/08 04:40:49;;;;;;;18.87;17.10;;;14.50;99.90;;;;;;6255218;28;20490;-65
2022/05/08 04:43:59;;;;;;;17.17;15.57;;;14.50;99.90;;;;;;6255811;28;20489;-65
2022/05/08 04:47:03;;;;;;;18.43;16.87;;;14.50;99.90;;;;;;6254452;28;20479;-65
2022/05/08 04:50:06;;;;;;;18.70;17.00;;;14.50;99.90;;;;;;6255745;28;20996;-65
2022/05/08 04:53:10;;;;;;;17.30;15.80;;;14.40;99.90;;;;;;6256197;28;20467;-65
2022/05/08 04:56:13;;;;;;;17.30;15.70;;;14.40;99.90;;;;;;6251052;28;20478;-65
2022/05/08 04:59:17;;;;;;;17.03;15.33;;;14.50;99.90;;;;;;6253882;28;20478;-62
2022/05/08 05:02:20;;;;;;;17.70;16.20;;;14.60;99.90;;;;;;6253392;28;20471;-62
2022/05/08 05:05:24;;;;;;;17.23;15.63;;;14.70;99.90;;;;;;6253719;28;20475;-63
2022/05/08 05:08:27;;;;;;;17.43;15.93;;;14.70;99.90;;;;;;6254875;28;20482;-63
2022/05/08 05:11:30;;;;;;;17.03;15.57;;;14.80;99.90;;;;;;6256756;28;20919;-64
2022/05/08 05:14:35;;;;;;;17.47;15.97;;;14.70;99.90;;;;;;6259111;28;20475;-63
2022/05/08 05:17:38;;;;;;;17.27;15.67;;;14.70;99.90;;;;;;6256760;28;20486;-64
2022/05/08 05:20:41;;;;;;;17.13;15.63;;;14.80;99.90;;;;;;6253788;28;20562;-63
2022/05/08 05:23:44;;;;;;;17.67;15.80;;;14.80;99.90;;;;;;6254122;28;20574;-64
2022/05/08 05:26:48;;;;;;;16.10;14.60;;;14.80;99.90;;;;;;6254339;28;20978;-64
2022/05/08 05:29:53;;;;;;;16.53;14.90;;;14.80;99.90;;;;;;6252798;28;20475;-62
2022/05/08 05:32:56;;;;;;;15.63;14.30;;;14.90;99.90;;;;;;6252414;28;20827;-63
2022/05/08 05:35:59;;;;;;;17.33;15.73;;;14.90;99.90;;;;;;6251606;28;20486;-63
2022/05/08 05:39:03;;;;;;;19.93;17.87;;;14.90;99.90;;;;;;6252268;28;20459;-62
2022/05/08 05:42:08;;;;;;;18.10;16.33;;;14.90;99.90;;;;;;6252254;28;20482;-62
2022/05/08 05:45:12;;;;;;;18.00;16.40;;;14.90;99.90;;;;;;6251847;28;20471;-62
2022/05/08 05:48:14;;;;;;;17.83;16.23;;;14.90;99.90;;;;;;6252747;28;20475;-62
2022/05/08 05:51:17;;;;;;;17.47;15.67;;;14.90;99.90;;;;;;6252514;28;20474;-63
2022/05/08 05:54:22;;;;;;;17.43;15.80;;;14.90;99.90;;;;;;6252673;28;20474;-63
2022/05/08 05:57:25;;;;;;;17.97;16.23;;;15.00;99.90;;;;;;6252008;28;20951;-63
2022/05/08 06:00:30;;;;;;;18.13;16.13;;;15.00;99.90;;;;;;6251769;28;20807;-63
2022/05/08 06:03:34;;;;;;;16.97;15.40;;;15.10;99.90;;;;;;6252092;28;20834;-62
2022/05/08 06:06:37;;;;;;;16.00;14.60;;;15.10;99.90;;;;;;6251817;28;20483;-62
2022/05/08 06:09:40;;;;;;;17.83;16.13;;;15.20;99.90;;;;;;6252403;28;20487;-65
2022/05/08 06:12:43;;;;;;;16.03;14.70;;;15.30;99.90;;;;;;6251959;28;20482;-65
2022/05/08 06:15:48;;;;;;;16.70;15.23;;;15.40;99.90;;;;;;6252101;28;20482;-64
2022/05/08 06:18:51;;;;;;;16.27;14.87;;;15.50;99.90;;;;;;6251737;28;20471;-64
2022/05/08 06:21:54;;;;;;;17.43;15.80;;;15.50;99.90;;;;;;6252076;28;20471;-64
2022/05/08 06:24:57;;;;;;;16.80;15.30;;;15.70;99.90;;;;;;6251861;28;20479;-63
2022/05/08 06:28:00;;;;;;;15.77;14.27;;;15.80;99.90;;;;;;6226663;28;20457;-63
2022/05/08 06:31:05;;;;;;;16.97;15.23;;;15.90;99.90;;;;;;6227781;28;20487;-64
2022/05/08 06:34:08;;;;;;;16.17;14.77;;;15.90;99.90;;;;;;6251559;28;20462;-64
2022/05/08 06:37:12;;;;;;;16.87;15.37;;;16.00;99.90;;;;;;6251408;28;20800;-65
2022/05/08 06:40:15;;;;;;;17.10;15.50;;;16.00;99.90;;;;;;6251960;28;20455;-66
2022/05/08 06:43:18;;;;;;;16.30;14.70;;;16.00;99.90;;;;;;6251409;28;20473;-62
2022/05/08 06:46:22;;;;;;;17.40;15.80;;;16.00;99.90;;;;;;6251282;28;20474;-62
2022/05/08 06:49:26;;;;;;;15.20;14.00;;;16.00;99.90;;;;;;6251251;28;20542;-65
2022/05/08 06:52:29;;;;;;;15.87;14.40;;;16.00;99.90;;;;;;6251415;28;20478;-66
2022/05/08 06:55:33;;;;;;;15.40;13.97;;;16.00;99.90;;;;;;6251357;28;20471;-65
2022/05/08 07:01:34;;;;;;;15.87;14.27;;;16.10;99.90;;;;;;6251350;28;20486;-65
2022/05/08 07:02:00;;;;;;;14.70;13.40;;;16.20;99.90;;;;;;6251195;28;20943;-66
2022/05/08 07:05:07;;;;;;;16.30;14.70;;;16.30;99.90;;;;;;6242446;28;20782;-65
2022/05/08 07:08:10;;;;;;;14.50;13.20;;;16.50;99.90;;;;;;6250903;28;20475;-63
2022/05/08 07:11:13;;;;;;;14.83;13.43;;;16.80;99.90;;;;;;6252843;28;20491;-62
2022/05/08 07:14:17;;;;;;;14.20;12.77;;;17.50;99.90;;;;;;6252945;28;20475;-63
2022/05/08 07:17:23;;;;;;;12.90;11.80;;;18.00;99.90;;;;;;6252063;28;20470;-62
2022/05/08 07:20:26;;;;;;;13.80;12.60;;;18.60;99.90;;;;;;6250678;28;21019;-63
2022/05/08 07:23:30;;;;;;;11.97;10.90;;;19.10;99.90;;;;;;6250471;28;20787;-63
2022/05/08 07:26:33;;;;;;;12.40;11.27;;;19.50;99.90;;;;;;6250298;28;20232;-63
2022/05/08 07:29:36;;;;;;;12.73;11.73;;;20.00;99.90;;;;;;6250172;28;20229;-63
2022/05/08 07:32:42;;;;;;;13.10;11.93;;;20.30;99.90;;;;;;6250478;28;20239;-66
2022/05/08 07:39:07;;;;;;;13.60;12.30;;;21.00;99.90;;;;;;6252008;28;20219;-65
2022/05/08 07:42:10;;;;;;;13.60;12.47;;;21.30;99.90;;;;;;6271319;28;20938;-66
2022/05/08 07:45:13;;;;;;;11.90;10.80;;;21.60;99.90;;;;;;6249878;28;20224;-63
2022/05/08 07:48:18;;;;;;;13.13;11.63;;;22.50;99.50;;;;;;6257045;28;20579;-64
2022/05/08 07:51:21;;;;;;;12.27;11.27;;;23.40;97.20;;;;;;6273497;28;20242;-63
2022/05/08 07:54:25;;;;;;;12.10;11.10;;;23.40;95.10;;;;;;6274825;28;20235;-64
2022/05/08 07:57:28;;;;;;;12.70;11.60;;;23.20;94.20;;;;;;6271379;28;20246;-65
2022/05/08 08:00:32;;;;;;;12.37;11.27;;;22.90;94.60;;;;;;6264710;28;20230;-66
2022/05/08 08:03:37;;;;;;;10.63;9.83;;;22.90;94.70;;;;;;6263970;28;20314;-66
2022/05/08 08:06:40;;;;;;;11.60;10.70;;;23.60;94.50;;;;;;6252323;28;20255;-66
2022/05/08 08:09:44;;;;;;;11.37;10.57;;;24.20;92.70;;;;;;6258517;28;20231;-66
2022/05/08 08:12:48;;;;;;;10.50;9.70;;;25.80;91.10;;;;;;6274948;28;20237;-67
2022/05/08 08:15:51;;;;;;;11.07;10.27;;;27.00;83.20;;;;;;6274373;28;20664;-66
2022/05/08 08:18:57;;;;;;;10.50;9.80;;;27.20;75.50;;;;;;6275125;28;20239;-67
2022/05/08 08:22:00;;;;;;;9.53;8.93;;;27.00;74.90;;;;;;6274792;28;20666;-66
2022/05/08 08:25:04;;;;;;;11.33;10.53;;;26.50;73.30;;;;;;6273591;28;20546;-68
2022/05/08 08:28:08;;;;;;;8.47;7.97;;;26.50;75.00;;;;;;6273237;28;20233;-67
2022/05/08 08:31:11;;;;;;;8.67;8.03;;;27.80;72.50;;;;;;6273222;28;20228;-66
2022/05/08 08:34:16;;;;;;;9.03;8.33;;;29.30;65.40;;;;;;6273410;28;20211;-67
2022/05/08 08:37:19;;;;;;;9.17;8.37;;;29.10;60.80;;;;;;6273700;28;20239;-67
2022/05/08 08:40:23;;;;;;;9.07;8.33;;;28.60;61.00;;;;;;6275160;28;20227;-68
2022/05/08 08:43:27;;;;;;;9.90;9.10;;;27.80;62.40;;;;;;6274595;28;20227;-66
2022/05/08 08:49:53;;;;;;;8.80;8.20;;;26.20;63.50;;;;;;6275354;28;20690;-67
2022/05/08 08:52:59;;;;;;;9.50;8.70;;;25.70;65.50;;;;;;6279967;28;20227;-66
2022/05/08 08:56:03;;;;;;;9.63;8.83;;;25.60;67.40;;;;;;6278791;28;20227;-66
2022/05/08 08:59:06;;;;;;;8.77;8.07;;;25.50;67.70;;;;;;6278377;28;20226;-66
2022/05/08 09:02:16;;;;;;;9.47;8.63;;;25.40;68.90;;;;;;6279253;28;20557;-67
2022/05/08 09:05:22;;;;;;;9.90;9.10;;;25.30;68.90;;;;;;6280624;28;20243;-66
2022/05/08 09:08:29;;;;;;;8.87;8.27;;;25.30;67.30;;;;;;6281378;28;20316;-66
2022/05/08 09:11:33;;;;;;;9.13;8.23;;;25.50;68.80;;;;;;6282084;28;20315;-67
2022/05/08 09:14:37;;;;;;;9.53;8.67;;;25.50;68.50;;;;;;6279527;28;20231;-66
2022/05/08 09:17:44;;;;;;;10.90;10.00;;;25.20;68.90;;;;;;6278875;28;20565;-66
2022/05/08 09:20:50;;;;;;;10.50;9.67;;;24.90;69.80;;;;;;6278890;28;20299;-66
2022/05/08 09:24:07;;;;;;;10.00;9.20;;;24.60;70.50;;;;;;6278879;28;20238;-67
2022/05/08 09:27:15;;;;;;;9.37;8.67;;;24.20;70.80;;;;;;6278119;28;20236;-66
2022/05/08 09:30:19;;;;;;;10.00;9.10;;;24.00;72.20;;;;;;6278238;28;20243;-64
2022/05/08 09:33:27;;;;;;;8.90;8.20;;;23.90;73.10;;;;;;6278331;28;20239;-64
2022/05/08 09:36:31;;;;;;;9.40;8.70;;;24.00;75.50;;;;;;6277845;28;20235;-65
2022/05/08 09:39:35;;;;;;;9.47;8.60;;;24.30;73.50;;;;;;6256750;28;20244;-65
2022/05/08 09:42:39;;;;;;;9.33;8.63;;;24.70;72.30;;;;;;6245024;28;20224;-66
2022/05/08 09:45:57;;;;;;;9.40;8.60;;;24.50;71.10;;;;;;6236191;28;20826;-66
2022/05/08 09:49:01;;;;;;;9.23;8.27;;;24.50;72.00;;;;;;6252315;28;20255;-66
2022/05/08 09:52:07;;;;;;;9.30;8.47;;;24.50;71.30;;;;;;6228521;28;20308;-65
2022/05/08 09:55:12;;;;;;;10.00;9.10;;;24.20;71.20;;;;;;6228512;28;20209;-67
2022/05/08 09:58:15;;;;;;;9.77;8.47;;;24.10;71.50;;;;;;6234524;28;20212;-64
2022/05/08 10:01:18;;;;;;;9.07;8.37;;;24.10;71.50;;;;;;6251519;28;20197;-64
2022/05/08 10:04:21;;;;;;;9.07;8.27;;;24.30;71.90;;;;;;6252359;28;20591;-64
2022/05/08 10:07:26;;;;;;;9.10;8.30;;;24.70;69.50;;;;;;6251921;28;20247;-65
2022/05/08 10:13:56;;;;;;;8.97;8.30;;;24.80;69.60;;;;;;6252450;28;20229;-65
2022/05/08 10:17:04;;;;;;;8.83;8.03;;;24.70;67.70;;;;;;6223130;28;20240;-66
2022/05/08 10:20:08;;;;;;;12.57;10.23;;;24.60;69.80;;;;;;6227753;28;20532;-67
2022/05/08 10:23:37;;;;;;;10.40;9.60;;;24.60;69.80;;;;;;6227493;28;20233;-67
2022/05/08 10:26:41;;;;;;;9.70;9.00;;;24.80;70.80;;;;;;6227419;28;20233;-66
2022/05/08 10:30:29;;;;;;;9.40;8.03;;;24.80;68.50;;;;;;6227333;28;20233;-64
2022/05/08 10:34:02;;;;;;;10.10;7.90;;;24.60;70.10;;;;;;6227132;28;20551;-65
2022/05/08 10:37:25;;;;;;;8.50;7.90;;;23.80;70.20;;;;;;6250134;28;20314;-65
2022/05/08 10:40:38;;;;;;;9.10;8.30;;;23.50;72.70;;;;;;6272594;28;20232;-64
2022/05/08 10:43:42;;;;;;;8.53;7.83;;;23.40;72.60;;;;;;6233209;28;20233;-64
2022/05/08 10:46:45;;;;;;;8.10;7.40;;;23.60;74.60;;;;;;6263286;28;20303;-63
2022/05/08 10:49:54;;;;;;;9.50;8.80;;;23.60;73.50;;;;;;6272934;28;20234;-63
2022/05/08 10:52:58;;;;;;;9.90;9.10;;;23.50;73.60;;;;;;6276100;28;20238;-64
2022/05/08 10:56:06;;;;;;;9.43;8.67;;;23.10;74.30;;;;;;6258844;28;20232;-63
2022/05/08 10:59:09;;;;;;;8.83;8.13;;;22.90;74.50;;;;;;6251194;28;20228;-63
2022/05/08 11:02:12;;;;;;;9.13;8.43;;;22.80;75.40;;;;;;6250462;28;20255;-65
2022/05/08 11:05:19;;;;;;;11.60;9.27;;;22.80;74.80;;;;;;6250698;28;20235;-64
2022/05/08 11:08:24;;;;;;;8.53;7.90;;;22.50;74.00;;;;;;6250893;28;20234;-65
2022/05/08 11:11:29;;;;;;;10.00;9.20;;;22.20;74.90;;;;;;6250816;28;20237;-63
2022/05/08 11:14:32;;;;;;;10.03;9.20;;;21.90;77.30;;;;;;6256034;28;20260;-63
2022/05/08 11:17:35;;;;;;;9.30;8.50;;;21.80;79.40;;;;;;6260560;28;20243;-63
2022/05/08 11:20:45;;;;;;;11.10;10.20;;;21.50;82.10;;;;;;6249392;28;20548;-62
2022/05/08 11:23:48;;;;;;;11.37;9.20;;;21.50;84.10;;;;;;6250869;28;20239;-64
2022/05/08 11:26:52;;;;;;;12.50;9.07;;;21.60;84.40;;;;;;6254365;28;20219;-63
2022/05/08 11:29:56;;;;;;;9.80;9.00;;;21.60;84.20;;;;;;6268568;28;20224;-63
2022/05/08 11:36:25;;;;;;;10.03;9.23;;;22.10;83.70;;;;;;6270603;28;20228;-65
2022/05/08 11:39:28;;;;;;;11.00;10.00;;;22.60;82.60;;;;;;6250823;28;20232;-65
2022/05/08 11:42:39;;;;;;;9.97;9.13;;;22.60;83.10;;;;;;6237857;28;20225;-64
2022/05/08 11:45:57;;;;;;;10.80;9.90;;;22.80;84.40;;;;;;6226177;28;20225;-64
2022/05/08 11:49:01;;;;;;;10.53;9.47;;;23.10;81.80;;;;;;6225339;28;20236;-64
2022/05/08 11:52:06;;;;;;;13.03;9.87;;;22.90;80.30;;;;;;6226076;28;20221;-64
2022/05/08 11:55:10;;;;;;;9.40;8.70;;;22.90;81.70;;;;;;6226229;28;20243;-64
2022/05/08 11:58:30;;;;;;;9.87;9.07;;;23.30;81.30;;;;;;6225995;28;20225;-64
2022/05/08 12:01:34;;;;;;;10.10;9.20;;;23.20;79.50;;;;;;6225872;28;20225;-63
2022/05/08 12:04:38;;;;;;;8.33;7.63;;;23.30;80.30;;;;;;6225589;28;20247;-64
2022/05/08 12:07:42;;;;;;;10.87;9.90;;;23.50;78.80;;;;;;6246571;28;20223;-64
2022/05/08 12:10:45;;;;;;;13.60;12.43;;;23.70;77.60;;;;;;6273961;28;20238;-64
2022/05/08 12:14:06;;;;;;;20.90;17.90;;;24.10;76.40;;;;;;6250166;28;20232;-64
2022/05/08 12:17:10;;;;;;;20.13;18.23;;;24.30;72.70;;;;;;6249838;28;20232;-63
2022/05/08 12:20:15;;;;;;;12.70;11.70;;;24.30;74.70;;;;;;6252554;28;20224;-64
2022/05/08 12:23:18;;;;;;;11.47;10.37;;;24.50;74.60;;;;;;6273193;28;20235;-63
2022/05/08 12:26:21;;;;;;;11.03;9.70;;;24.30;74.10;;;;;;6266639;28;20239;-64
2022/05/08 12:29:26;;;;;;;10.17;9.33;;;24.10;74.50;;;;;;6238979;28;20233;-65
2022/05/08 12:32:29;;;;;;;11.83;10.50;;;23.90;76.20;;;;;;6253571;28;20225;-64
2022/05/08 12:35:32;;;;;;;10.90;9.90;;;23.80;75.30;;;;;;6242742;28;20225;-64
2022/05/08 12:38:36;;;;;;;10.80;9.87;;;23.50;76.60;;;;;;6230057;28;20248;-64
2022/05/08 12:41:39;;;;;;;9.87;9.17;;;23.50;76.40;;;;;;6229588;28;20575;-65
2022/05/08 12:44:44;;;;;;;10.63;9.73;;;23.50;77.60;;;;;;6246717;28;20696;-64
2022/05/08 12:47:48;;;;;;;12.07;10.17;;;23.50;79.40;;;;;;6253746;28;20228;-65
2022/05/08 12:50:51;;;;;;;10.63;9.60;;;23.70;78.40;;;;;;6236340;28;20229;-65
2022/05/08 12:53:55;;;;;;;10.23;9.43;;;24.00;77.60;;;;;;6229113;28;20241;-65
2022/05/08 12:56:59;;;;;;;10.30;9.50;;;24.10;77.30;;;;;;6229028;28;20245;-64
2022/05/08 13:00:05;;;;;;;12.47;10.50;;;23.80;77.10;;;;;;6231843;28;20220;-64
2022/05/08 13:03:11;;;;;;;12.27;11.37;;;23.70;77.90;;;;;;6267796;28;20217;-65
2022/05/08 13:06:14;;;;;;;10.23;9.10;;;23.70;78.30;;;;;;6279411;28;20294;-65
2022/05/08 13:09:18;;;;;;;10.60;9.73;;;23.30;80.40;;;;;;6278986;28;20239;-65
2022/05/08 13:12:21;;;;;;;10.00;9.30;;;23.60;78.60;;;;;;6273221;28;20232;-65
2022/05/08 13:15:25;;;;;;;10.43;9.53;;;23.90;77.20;;;;;;6261188;28;20235;-65
2022/05/08 13:18:28;;;;;;;10.70;9.57;;;23.90;77.70;;;;;;6254775;28;20581;-64
2022/05/08 13:21:32;;;;;;;10.67;9.60;;;23.30;78.50;;;;;;6253057;28;20243;-64
2022/05/08 13:24:36;;;;;;;11.63;10.73;;;23.20;79.40;;;;;;6259446;28;20239;-64
2022/05/08 13:27:39;;;;;;;10.37;9.10;;;23.40;79.20;;;;;;6254374;28;20277;-65
2022/05/08 13:30:49;;;;;;;10.07;9.27;;;23.60;77.90;;;;;;6261462;28;20755;-64
2022/05/08 13:33:52;;;;;;;8.80;7.97;;;23.70;77.20;;;;;;6255137;28;20649;-65
2022/05/08 13:36:56;;;;;;;4.53;4.13;;;23.90;75.80;;;;;;6262003;28;20940;-65
2022/05/08 13:40:00;;;;;;;5.73;4.10;;;23.60;67.40;;;;;;6264667;28;20672;-65
2022/05/08 13:43:09;;;;;;;4.50;3.87;;;23.00;67.80;;;;;;6242550;28;20232;-65
2022/05/08 13:46:13;;;;;;;7.27;4.87;;;22.60;70.40;;;;;;6240437;28;20223;-64
2022/05/08 13:49:17;;;;;;;11.43;5.90;;;22.00;77.30;;;;;;6260889;28;20204;-65
2022/05/08 13:52:20;;;;;;;6.23;4.63;;;21.50;83.20;;;;;;6268594;28;20235;-64
2022/05/08 13:55:23;;;;;;;8.03;4.67;;;21.10;85.50;;;;;;6271216;28;20223;-67
2022/05/08 13:58:26;;;;;;;10.17;4.50;;;20.60;87.20;;;;;;6260810;28;20242;-64
2022/05/08 14:01:31;;;;;;;7.83;5.13;;;20.10;89.90;;;;;;6273652;28;20227;-63
2022/05/08 14:04:35;;;;;;;6.27;5.23;;;19.60;91.10;;;;;;6272996;28;20298;-64
2022/05/08 14:07:38;;;;;;;5.77;5.17;;;19.30;92.70;;;;;;6252195;28;20249;-64
2022/05/08 14:10:43;;;;;;;15.00;5.33;;;19.20;93.20;;;;;;6250855;28;20235;-64
2022/05/08 14:13:46;;;;;;;5.90;5.40;;;19.10;93.90;;;;;;6250656;28;20264;-64
2022/05/08 14:16:50;;;;;;;9.90;5.90;;;19.10;94.50;;;;;;6250520;28;20232;-65
2022/05/08 14:19:53;;;;;;;6.30;5.70;;;19.10;95.30;;;;;;6250554;28;20250;-65
2022/05/08 14:22:57;;;;;;;6.67;6.10;;;19.20;96.10;;;;;;6250364;28;20224;-65
2022/05/08 14:26:01;;;;;;;7.90;5.50;;;19.20;95.60;;;;;;6250985;28;20217;-65
2022/05/08 14:29:04;;;;;;;6.33;5.73;;;19.30;95.40;;;;;;6251703;28;20228;-65
2022/05/08 14:39:02;;;;;;;4.87;4.37;;;19.40;96.10;;;;;;6251505;28;20239;-64
2022/05/08 14:42:06;;;;;;;4.17;3.33;;;19.30;93.70;;;;;;6251098;28;20306;-64
2022/05/08 14:45:10;;;;;;;5.10;4.20;;;19.20;94.60;;;;;;6251096;28;20247;-64
2022/05/08 14:48:15;;;;;;;6.70;3.73;;;19.30;94.50;;;;;;6250749;28;20244;-64
2022/05/08 14:51:18;;;;;;;4.13;3.40;;;19.30;94.50;;;;;;6229602;28;20548;-65
2022/05/08 14:54:22;;;;;;;5.43;4.60;;;19.20;93.90;;;;;;6226672;28;20233;-64
2022/05/08 14:57:25;;;;;;;4.33;3.80;;;19.10;94.30;;;;;;6227085;28;20472;-64
2022/05/08 15:00:28;;;;;;;5.77;4.30;;;19.00;94.30;;;;;;6228884;28;20233;-65
2022/05/08 15:03:34;;;;;;;5.43;3.77;;;19.10;94.50;;;;;;6226654;28;20559;-64
2022/05/08 15:06:37;;;;;;;6.03;3.80;;;19.10;94.70;;;;;;6226423;28;20326;-64
2022/05/08 15:09:40;;;;;;;4.67;4.20;;;19.00;94.80;;;;;;6226393;28;20692;-64
2022/05/08 15:12:44;;;;;;;4.53;4.13;;;19.00;94.40;;;;;;6226123;28;20240;-64
2022/05/08 15:15:47;;;;;;;7.10;4.50;;;18.90;95.60;;;;;;6226245;28;20472;-65
2022/05/08 15:18:51;;;;;;;4.67;3.83;;;18.90;94.70;;;;;;6225727;28;20480;-65
2022/05/08 15:21:55;;;;;;;5.00;4.50;;;18.90;95.20;;;;;;6226104;28;20483;-65
2022/05/08 15:24:59;;;;;;;5.33;4.77;;;18.90;94.90;;;;;;6225787;28;20839;-64
2022/05/08 15:28:03;;;;;;;7.90;5.33;;;19.00;94.80;;;;;;6245642;28;20550;-65
2022/05/08 15:31:07;;;;;;;5.00;4.50;;;19.00;94.70;;;;;;6250946;28;20200;-64
2022/05/08 15:34:12;;;;;;;5.20;4.70;;;18.90;94.80;;;;;;6242161;28;20224;-65
2022/05/08 15:37:15;;;;;;;5.83;5.33;;;18.90;95.00;;;;;;6250979;28;20239;-64
2022/05/08 15:40:19;;;;;;;4.80;4.40;;;18.80;95.00;;;;;;6250777;28;20447;-64
2022/05/08 15:43:22;;;;;;;4.87;4.37;;;18.70;95.50;;;;;;6259605;28;20967;-65
2022/05/08 15:46:25;;;;;;;4.80;4.13;;;18.80;95.70;;;;;;6262502;28;20459;-64
2022/05/08 15:49:30;;;;;;;4.17;3.80;;;18.90;95.70;;;;;;6254673;28;20964;-64
2022/05/08 15:52:33;;;;;;;3.60;3.30;;;19.10;96.00;;;;;;6225602;28;20650;-64
2022/05/08 15:55:36;;;;;;;3.67;3.30;;;19.10;95.40;;;;;;6226563;28;20943;-64
2022/05/08 15:58:40;;;;;;;3.17;2.90;;;19.30;95.20;;;;;;6234044;28;20232;-65
2022/05/08 16:01:43;;;;;;;4.33;3.53;;;19.40;95.10;;;;;;6251172;28;20224;-64
2022/05/08 16:04:47;;;;;;;4.27;3.17;;;19.40;95.00;;;;;;6244790;28;20599;-64
2022/05/08 16:07:50;;;;;;;3.47;3.17;;;19.50;95.30;;;;;;6231162;28;20244;-65
2022/05/08 16:10:53;;;;;;;3.20;2.53;;;19.50;95.00;;;;;;6231086;28;20220;-64
2022/05/08 16:24:00;;;;;;;3.90;3.20;;;19.10;95.80;;;;;;6254759;28;20239;-63
2022/05/08 16:27:04;;;;;;;4.43;3.90;;;19.00;96.60;;;;;;6253826;28;20235;-65